createdAt,value
2023-01-30T00:03:34.474Z,8.50
2023-01-30T00:08:55.292Z,7.80
2023-01-30T00:14:16.369Z,7.50
2023-01-30T00:19:37.106Z,8.80
2023-01-30T00:24:57.756Z,7.97
2023-01-30T00:30:18.667Z,9.27
2023-01-30T00:35:46.963Z,8.93
2023-01-30T00:41:08.061Z,9.07
2023-01-30T00:46:51.690Z,8.93
2023-01-30T00:52:13.226Z,8.67
2023-01-30T00:57:33.994Z,8.57
2023-01-30T01:02:54.736Z,9.73
2023-01-30T01:08:15.537Z,8.02
2023-01-30T01:13:36.180Z,8.00
2023-01-30T01:18:56.956Z,8.02
2023-01-30T01:24:17.516Z,8.32
2023-01-30T01:29:38.357Z,7.82
2023-01-30T01:34:59.011Z,8.38
2023-01-30T01:40:38.796Z,7.55
2023-01-30T01:46:22.334Z,7.30
2023-01-30T01:51:48.079Z,8.20
2023-01-30T01:57:12.493Z,7.63
2023-01-30T02:02:33.899Z,7.18
2023-01-30T02:08:29.571Z,7.43
2023-01-30T02:13:50.809Z,8.10
2023-01-30T02:19:24.793Z,8.00
2023-01-30T02:24:51.642Z,8.55
2023-01-30T02:30:12.581Z,7.97
2023-01-30T02:35:39.181Z,8.05
2023-01-30T02:41:28.159Z,8.55
2023-01-30T02:47:22.095Z,7.50
2023-01-30T02:52:42.920Z,8.73
2023-01-30T02:58:04.227Z,8.18
2023-01-30T03:03:42.173Z,8.50
2023-01-30T03:09:38.459Z,8.20
2023-01-30T03:15:03.610Z,8.65
2023-01-30T03:20:24.872Z,8.90
2023-01-30T03:25:46.058Z,8.85
2023-01-30T03:31:07.475Z,8.75
2023-01-30T03:36:28.590Z,9.05
2023-01-30T03:41:50.827Z,7.97
2023-01-30T03:47:12.531Z,8.98
2023-01-30T03:52:37.090Z,8.45
2023-01-30T03:57:59.156Z,8.93
2023-01-30T04:03:24.060Z,8.77
2023-01-30T04:08:48.082Z,9.30
2023-01-30T04:14:23.840Z,9.30
2023-01-30T04:20:24.857Z,8.95
2023-01-30T04:26:01.155Z,8.43
2023-01-30T04:31:30.087Z,8.95
2023-01-30T04:37:07.712Z,9.98
2023-01-30T04:42:40.525Z,10.07
2023-01-30T04:48:24.622Z,9.02
2023-01-30T04:53:45.706Z,9.93
2023-01-30T04:59:13.435Z,8.13
2023-01-30T05:04:39.141Z,9.70
2023-01-30T05:09:59.951Z,9.50
2023-01-30T05:15:21.001Z,9.18
2023-01-30T05:20:42.163Z,8.05
2023-01-30T05:26:03.037Z,8.68
2023-01-30T05:31:24.121Z,8.93
2023-01-30T05:36:46.336Z,8.82
2023-01-30T05:42:07.744Z,8.95
2023-01-30T05:47:28.783Z,9.15
2023-01-30T05:52:49.519Z,7.68
2023-01-30T05:58:10.909Z,8.95
2023-01-30T06:03:31.828Z,8.13
2023-01-30T06:08:53.981Z,7.50
2023-01-30T06:14:15.040Z,8.50
2023-01-30T06:19:35.756Z,8.30
2023-01-30T06:24:56.727Z,8.77
2023-01-30T06:30:17.595Z,7.60
2023-01-30T06:35:39.050Z,8.50
2023-01-30T06:40:59.624Z,8.45
2023-01-30T06:46:20.339Z,6.90
2023-01-30T06:51:41.041Z,7.32
2023-01-30T06:57:01.717Z,7.03
2023-01-30T07:02:22.996Z,6.13
2023-01-30T07:07:43.612Z,6.75
2023-01-30T07:13:04.550Z,6.45
2023-01-30T07:18:25.287Z,6.43
2023-01-30T07:23:47.082Z,6.82
2023-01-30T07:29:08.095Z,6.20
2023-01-30T07:34:29.223Z,5.88
2023-01-30T07:39:50.218Z,5.78
2023-01-30T07:45:14.175Z,5.93
2023-01-30T07:50:35.156Z,5.90
2023-01-30T07:55:55.892Z,6.57
2023-01-30T08:01:17.238Z,5.68
2023-01-30T08:06:39.688Z,5.47
2023-01-30T08:12:00.457Z,5.50
2023-01-30T08:17:22.623Z,5.07
2023-01-30T08:22:43.633Z,4.78
2023-01-30T08:28:05.051Z,5.53
2023-01-30T08:33:25.642Z,5.28
2023-01-30T08:38:46.475Z,4.55
2023-01-30T08:44:07.379Z,4.43
2023-01-30T08:49:28.111Z,4.53
2023-01-30T08:54:48.988Z,4.93
2023-01-30T09:00:11.069Z,4.15
2023-01-30T09:05:31.927Z,3.85
2023-01-30T09:10:58.276Z,4.75
2023-01-30T09:16:19.239Z,4.63
2023-01-30T09:21:41.940Z,4.38
2023-01-30T09:27:03.274Z,4.95
2023-01-30T09:32:24.145Z,4.05
2023-01-30T09:37:49.209Z,4.18
2023-01-30T09:43:15.316Z,3.90
2023-01-30T09:48:54.246Z,3.80
2023-01-30T09:54:24.638Z,3.40
2023-01-30T10:00:03.620Z,3.40
2023-01-30T10:05:55.022Z,3.70
2023-01-30T10:11:38.930Z,3.60
2023-01-30T10:17:18.219Z,3.27
2023-01-30T10:23:11.407Z,3.20
2023-01-30T10:28:37.960Z,3.10
2023-01-30T10:34:06.695Z,3.50
2023-01-30T10:39:55.957Z,3.28
2023-01-30T10:45:20.547Z,3.40
2023-01-30T10:56:28.295Z,3.45
2023-01-30T11:02:02.804Z,3.15
2023-01-30T11:07:24.267Z,3.47
2023-01-30T11:12:46.524Z,3.17
2023-01-30T11:18:50.897Z,3.13
2023-01-30T11:23:48.903Z,3.35
2023-01-30T11:29:26.980Z,3.10
2023-01-30T11:35:21.702Z,3.20
2023-01-30T11:40:42.913Z,2.65
2023-01-30T11:46:05.611Z,2.70
2023-01-30T11:51:26.817Z,2.80
2023-01-30T11:56:55.599Z,3.10
2023-01-30T12:02:28.580Z,2.55
2023-01-30T12:07:53.286Z,2.40
2023-01-30T12:13:29.772Z,1.98
2023-01-30T12:19:06.352Z,1.60
2023-01-30T12:25:05.263Z,1.90
2023-01-30T12:30:49.735Z,1.45
2023-01-30T12:36:48.275Z,1.52
2023-01-30T12:42:23.840Z,2.50
2023-01-30T12:47:55.919Z,2.15
2023-01-30T12:53:25.094Z,2.00
2023-01-30T12:58:53.752Z,1.52
2023-01-30T13:04:34.487Z,1.77
2023-01-30T13:10:15.313Z,1.60
2023-01-30T13:15:42.825Z,1.55
2023-01-30T13:21:16.289Z,1.60
2023-01-30T13:26:37.429Z,1.50
2023-01-30T13:32:01.359Z,1.70
2023-01-30T13:37:22.423Z,1.73
2023-01-30T13:43:27.539Z,1.58
2023-01-30T13:48:51.360Z,1.60
2023-01-30T13:54:40.101Z,1.48
2023-01-30T14:00:25.415Z,1.25
2023-01-30T14:05:57.629Z,1.23
2023-01-30T14:11:34.439Z,1.30
2023-01-30T14:16:57.522Z,1.15
2023-01-30T14:22:23.348Z,1.08
2023-01-30T14:27:44.502Z,1.17
2023-01-30T14:33:25.182Z,0.90
2023-01-30T14:38:47.563Z,1.02
2023-01-30T14:44:08.769Z,1.10
2023-01-30T14:49:29.815Z,0.70
2023-01-30T14:54:51.095Z,0.60
2023-01-30T15:00:19.481Z,0.50
2023-01-30T15:05:43.823Z,0.40
2023-01-30T15:11:05.916Z,0.88
2023-01-30T15:16:28.419Z,0.70
2023-01-30T15:22:13.615Z,0.55
2023-01-30T15:27:38.867Z,0.52
2023-01-30T15:33:22.997Z,1.00
2023-01-30T15:39:03.985Z,0.60
2023-01-30T15:44:31.468Z,0.60
2023-01-30T15:49:57.095Z,0.60
2023-01-30T15:55:24.417Z,0.77
2023-01-30T16:00:53.889Z,1.25
2023-01-30T16:06:32.824Z,0.85
2023-01-30T16:11:54.062Z,1.50
2023-01-30T16:17:14.827Z,0.93
2023-01-30T16:22:36.285Z,0.60
2023-01-30T16:27:58.618Z,1.00
2023-01-30T16:33:19.411Z,1.15
2023-01-30T16:38:44.562Z,0.93
2023-01-30T16:44:21.448Z,1.10
2023-01-30T16:49:44.598Z,1.52
2023-01-30T16:55:08.233Z,1.20
2023-01-30T17:00:33.616Z,1.42
2023-01-30T17:05:54.973Z,1.10
2023-01-30T17:11:38.049Z,2.03
2023-01-30T17:17:08.746Z,1.95
2023-01-30T17:22:29.834Z,1.35
2023-01-30T17:27:50.486Z,1.20
2023-01-30T17:33:12.016Z,1.02
2023-01-30T17:38:33.187Z,1.30
2023-01-30T17:43:54.443Z,1.08
2023-01-30T17:49:23.478Z,1.20
2023-01-30T17:54:44.566Z,1.48
2023-01-30T18:00:06.078Z,1.77
2023-01-30T18:05:30.210Z,0.90
2023-01-30T18:10:51.173Z,1.40
2023-01-30T18:16:24.166Z,1.63
2023-01-30T18:21:45.709Z,1.20
2023-01-30T18:27:06.924Z,1.38
2023-01-30T18:32:27.822Z,1.10
2023-01-30T18:37:50.071Z,1.00
2023-01-30T18:43:11.808Z,1.23
2023-01-30T18:48:33.347Z,0.80
2023-01-30T18:53:56.643Z,1.13
2023-01-30T18:59:17.915Z,1.27
2023-01-30T19:04:39.574Z,0.98
2023-01-30T19:10:00.700Z,0.90
2023-01-30T19:15:21.802Z,1.23
2023-01-30T19:20:42.625Z,0.93
2023-01-30T19:26:03.653Z,0.88
2023-01-30T19:31:25.273Z,0.70
2023-01-30T19:36:46.377Z,0.77
2023-01-30T19:42:07.281Z,0.60
2023-01-30T19:47:28.354Z,0.57
2023-01-30T19:52:52.579Z,0.57
2023-01-30T19:58:13.346Z,0.43
2023-01-30T20:03:34.643Z,0.65
2023-01-30T20:09:09.683Z,1.08
2023-01-30T20:14:30.389Z,0.70
2023-01-30T20:19:51.609Z,0.98
2023-01-30T20:25:12.597Z,0.68
2023-01-30T20:30:33.248Z,0.63
2023-01-30T20:35:54.247Z,0.63
2023-01-30T20:41:20.565Z,0.60
2023-01-30T20:46:42.969Z,0.70
2023-01-30T20:52:06.677Z,0.60
2023-01-30T20:57:27.524Z,1.13
2023-01-30T21:02:52.373Z,0.50
2023-01-30T21:08:13.512Z,0.60
2023-01-30T21:13:51.610Z,0.70
2023-01-30T21:25:15.283Z,0.50
2023-01-30T21:30:36.998Z,0.55
2023-01-30T21:36:01.390Z,0.70
2023-01-30T21:41:43.690Z,0.70
2023-01-30T21:47:05.662Z,0.47
2023-01-30T21:52:27.716Z,0.70
2023-01-30T21:57:48.631Z,0.50
2023-01-30T22:03:09.878Z,0.40
2023-01-30T22:08:31.045Z,0.50
2023-01-30T22:13:52.242Z,0.38
2023-01-30T22:19:14.396Z,0.38
2023-01-30T22:24:36.159Z,0.60
2023-01-30T22:29:57.206Z,0.40
2023-01-30T22:35:18.294Z,0.32
2023-01-30T22:40:39.606Z,0.60
2023-01-30T22:46:05.657Z,0.38
2023-01-30T22:51:30.989Z,0.43
2023-01-30T22:56:52.736Z,0.88
2023-01-30T23:02:13.617Z,0.60
2023-01-30T23:07:35.020Z,0.52
2023-01-30T23:13:08.438Z,0.30
2023-01-30T23:18:48.076Z,0.50
2023-01-30T23:24:13.179Z,0.50
2023-01-30T23:29:34.577Z,0.40
2023-01-30T23:34:55.667Z,0.60
2023-01-30T23:40:16.775Z,0.40
2023-01-30T23:45:40.861Z,0.43
2023-01-30T23:51:02.736Z,0.35
2023-01-30T23:56:26.731Z,0.32
